createdAt,value
2022-12-27T00:02:01.353Z,80.60
2022-12-27T00:04:28.431Z,81.04
2022-12-27T00:06:55.058Z,80.80
2022-12-27T00:09:22.199Z,81.23
2022-12-27T00:11:48.926Z,80.84
2022-12-27T00:14:15.526Z,80.93
2022-12-27T00:16:42.134Z,80.91
2022-12-27T00:19:08.727Z,81.24
2022-12-27T00:21:36.671Z,81.30
2022-12-27T00:24:04.138Z,81.46
2022-12-27T00:26:32.994Z,81.20
2022-12-27T00:29:00.218Z,81.44
2022-12-27T00:31:29.946Z,81.88
2022-12-27T00:33:58.968Z,81.65
2022-12-27T00:36:27.755Z,81.61
2022-12-27T00:38:54.852Z,81.56
2022-12-27T00:41:21.525Z,81.45
2022-12-27T00:43:48.423Z,81.37
2022-12-27T00:46:15.703Z,81.42
2022-12-27T00:48:42.876Z,81.81
2022-12-27T00:51:15.160Z,81.40
2022-12-27T00:53:42.627Z,81.61
2022-12-27T00:56:15.908Z,81.25
2022-12-27T00:58:42.710Z,81.34
2022-12-27T01:01:14.842Z,81.03
2022-12-27T01:03:41.550Z,80.94
2022-12-27T01:06:11.560Z,81.15
2022-12-27T01:08:38.943Z,81.48
2022-12-27T01:11:06.322Z,81.14
2022-12-27T01:13:33.322Z,81.51
2022-12-27T01:15:59.907Z,81.17
2022-12-27T01:18:26.532Z,81.04
2022-12-27T01:20:53.147Z,81.50
2022-12-27T01:23:19.670Z,81.33
2022-12-27T01:25:46.237Z,81.37
2022-12-27T01:28:12.833Z,81.19
2022-12-27T01:30:39.394Z,81.55
2022-12-27T01:33:05.967Z,81.79
2022-12-27T01:35:32.595Z,81.62
2022-12-27T01:37:59.157Z,81.83
2022-12-27T01:40:26.157Z,81.49
2022-12-27T01:42:52.743Z,81.68
2022-12-27T01:45:26.065Z,81.70
2022-12-27T01:48:11.249Z,81.50
2022-12-27T01:50:49.533Z,81.78
2022-12-27T01:53:29.903Z,81.51
2022-12-27T01:56:22.946Z,81.42
2022-12-27T01:58:57.011Z,81.70
2022-12-27T02:01:28.088Z,81.66
2022-12-27T02:04:00.191Z,81.81
2022-12-27T02:06:27.991Z,81.82
2022-12-27T02:09:09.120Z,81.94
2022-12-27T02:11:52.239Z,81.54
2022-12-27T02:14:32.409Z,81.78
2022-12-27T02:17:02.870Z,82.07
2022-12-27T02:19:41.842Z,82.13
2022-12-27T02:22:53.198Z,81.93
2022-12-27T02:25:38.163Z,81.39
2022-12-27T02:28:25.848Z,81.73
2022-12-27T02:30:59.809Z,81.79
2022-12-27T02:33:32.502Z,81.63
2022-12-27T02:36:05.938Z,81.84
2022-12-27T02:38:42.792Z,81.28
2022-12-27T02:41:30.899Z,81.06
2022-12-27T02:44:16.863Z,81.37
2022-12-27T02:47:03.339Z,81.40
2022-12-27T02:49:56.917Z,81.50
2022-12-27T02:53:03.585Z,81.54
2022-12-27T02:55:30.123Z,81.41
2022-12-27T02:58:33.571Z,81.40
2022-12-27T03:01:29.010Z,81.16
2022-12-27T03:04:18.385Z,81.31
2022-12-27T03:06:55.896Z,81.29
2022-12-27T03:09:59.927Z,81.51
2022-12-27T03:12:54.285Z,81.33
2022-12-27T03:15:55.618Z,82.12
2022-12-27T03:18:28.199Z,81.93
2022-12-27T03:21:16.518Z,81.99
2022-12-27T03:24:04.636Z,81.67
2022-12-27T03:26:34.547Z,82.02
2022-12-27T03:29:21.420Z,81.66
2022-12-27T03:32:14.144Z,82.11
2022-12-27T03:34:47.812Z,81.77
2022-12-27T03:37:49.143Z,81.95
2022-12-27T03:40:34.534Z,81.69
2022-12-27T03:43:15.609Z,82.05
2022-12-27T03:46:17.410Z,81.62
2022-12-27T03:48:55.386Z,81.52
2022-12-27T03:51:25.001Z,81.42
2022-12-27T03:53:57.708Z,81.25
2022-12-27T03:56:24.521Z,81.53
2022-12-27T03:58:52.395Z,81.59
2022-12-27T04:01:19.049Z,81.45
2022-12-27T04:03:45.677Z,81.16
2022-12-27T04:06:12.317Z,81.03
2022-12-27T04:08:57.519Z,81.82
2022-12-27T04:11:42.640Z,81.07
2022-12-27T04:14:27.777Z,81.04
2022-12-27T04:17:12.832Z,81.43
2022-12-27T04:19:57.706Z,81.11
2022-12-27T04:22:42.523Z,81.29
2022-12-27T04:25:27.999Z,81.64
2022-12-27T04:28:13.167Z,81.70
2022-12-27T04:30:58.149Z,81.39
2022-12-27T04:33:43.245Z,81.56
2022-12-27T04:36:09.896Z,81.65
2022-12-27T04:38:36.438Z,81.54
2022-12-27T04:41:21.735Z,81.49
2022-12-27T04:44:06.631Z,81.64
2022-12-27T04:46:52.023Z,81.82
2022-12-27T04:49:44.213Z,81.77
2022-12-27T04:52:35.693Z,82.02
2022-12-27T04:55:28.146Z,81.82
2022-12-27T04:57:56.274Z,81.47
2022-12-27T05:00:44.217Z,81.88
2022-12-27T05:03:15.226Z,81.75
2022-12-27T05:05:43.499Z,81.52
2022-12-27T05:08:30.115Z,81.29
2022-12-27T05:11:15.263Z,81.16
2022-12-27T05:14:00.274Z,81.64
2022-12-27T05:16:31.053Z,81.54
2022-12-27T05:18:58.149Z,81.27
2022-12-27T05:21:25.380Z,81.70
2022-12-27T05:24:10.510Z,81.45
2022-12-27T05:26:38.715Z,81.77
2022-12-27T05:29:07.003Z,81.71
2022-12-27T05:31:34.250Z,81.61
2022-12-27T05:34:00.830Z,81.14
2022-12-27T05:36:27.784Z,81.53
2022-12-27T05:38:54.464Z,81.61
2022-12-27T05:41:21.028Z,81.17
2022-12-27T05:43:47.710Z,81.62
2022-12-27T05:46:17.582Z,81.45
2022-12-27T05:48:44.427Z,81.50
2022-12-27T05:51:17.149Z,81.91
2022-12-27T05:53:44.446Z,81.87
2022-12-27T05:56:16.488Z,81.45
2022-12-27T05:58:43.358Z,81.94
2022-12-27T06:01:12.643Z,81.85
2022-12-27T06:03:39.626Z,83.43
2022-12-27T06:06:08.112Z,84.35
2022-12-27T06:08:35.695Z,84.08
2022-12-27T06:11:13.092Z,81.24
2022-12-27T06:13:41.162Z,77.55
2022-12-27T06:16:10.839Z,76.95
2022-12-27T06:18:38.784Z,76.30
2022-12-27T06:21:08.218Z,76.56
2022-12-27T06:23:37.098Z,76.89
2022-12-27T06:26:20.149Z,75.85
2022-12-27T06:28:47.407Z,75.73
2022-12-27T06:31:14.067Z,74.64
2022-12-27T06:33:40.894Z,75.02
2022-12-27T06:36:12.705Z,75.94
2022-12-27T06:38:40.045Z,76.11
2022-12-27T06:41:09.478Z,75.05
2022-12-27T06:43:36.626Z,74.44
2022-12-27T06:46:05.927Z,75.16
2022-12-27T06:48:33.760Z,73.38
2022-12-27T06:51:04.237Z,72.92
2022-12-27T06:53:30.795Z,72.31
2022-12-27T06:55:57.404Z,71.52
2022-12-27T06:58:24.019Z,71.56
2022-12-27T07:00:50.786Z,71.36
2022-12-27T07:03:17.498Z,71.78
2022-12-27T07:05:44.314Z,72.17
2022-12-27T07:08:10.879Z,71.64
2022-12-27T07:10:37.827Z,71.94
2022-12-27T07:13:04.449Z,72.45
2022-12-27T07:15:31.261Z,73.91
2022-12-27T07:17:57.848Z,74.92
2022-12-27T07:20:24.829Z,75.78
2022-12-27T07:22:51.412Z,76.12
2022-12-27T07:25:18.047Z,77.18
2022-12-27T07:27:44.577Z,77.23
2022-12-27T07:30:11.261Z,77.68
2022-12-27T07:32:37.947Z,78.15
2022-12-27T07:35:05.002Z,78.17
2022-12-27T07:37:31.540Z,78.74
2022-12-27T07:39:58.224Z,78.45
2022-12-27T07:42:24.979Z,78.74
2022-12-27T07:44:51.571Z,78.74
2022-12-27T07:47:18.183Z,79.33
2022-12-27T07:49:44.859Z,78.90
2022-12-27T07:52:11.550Z,79.46
2022-12-27T07:54:38.205Z,79.74
2022-12-27T07:57:04.854Z,79.71
2022-12-27T07:59:31.413Z,79.56
2022-12-27T08:02:07.135Z,79.71
2022-12-27T08:04:37.253Z,79.95
2022-12-27T08:07:21.766Z,80.41
2022-12-27T08:09:49.366Z,79.75
2022-12-27T08:12:16.329Z,80.01
2022-12-27T08:14:43.148Z,80.08
2022-12-27T08:17:23.907Z,80.19
2022-12-27T08:19:55.579Z,80.03
2022-12-27T08:22:24.126Z,79.93
2022-12-27T08:24:51.209Z,79.65
2022-12-27T08:27:22.482Z,79.42
2022-12-27T08:29:49.126Z,79.36
2022-12-27T08:32:16.006Z,79.26
2022-12-27T08:34:42.610Z,79.54
2022-12-27T08:37:09.202Z,79.60
2022-12-27T08:39:35.916Z,79.94
2022-12-27T08:42:02.753Z,79.39
2022-12-27T08:44:29.425Z,78.97
2022-12-27T08:46:57.032Z,79.30
2022-12-27T08:49:23.815Z,79.64
2022-12-27T08:51:50.670Z,79.34
2022-12-27T08:54:17.298Z,78.93
2022-12-27T08:56:43.979Z,79.08
2022-12-27T08:59:10.552Z,79.13
2022-12-27T09:01:37.247Z,79.02
2022-12-27T09:04:04.387Z,79.09
2022-12-27T09:06:31.072Z,79.09
2022-12-27T09:08:58.140Z,79.03
2022-12-27T09:11:29.148Z,78.94
2022-12-27T09:13:56.294Z,79.13
2022-12-27T09:16:27.613Z,79.10
2022-12-27T09:18:56.116Z,79.32
2022-12-27T09:21:25.381Z,79.50
2022-12-27T09:23:52.262Z,79.38
2022-12-27T09:26:24.967Z,79.55
2022-12-27T09:28:52.044Z,79.37
2022-12-27T09:31:20.457Z,79.13
2022-12-27T09:33:47.250Z,79.00
2022-12-27T09:36:16.785Z,79.33
2022-12-27T09:38:43.869Z,78.97
2022-12-27T09:42:34.218Z,78.60
2022-12-27T09:44:52.896Z,78.62
2022-12-27T09:47:33.091Z,78.56
2022-12-27T09:50:06.884Z,78.31
2022-12-27T09:52:44.128Z,78.20
2022-12-27T09:55:40.343Z,77.82
2022-12-27T09:58:28.868Z,78.02
2022-12-27T10:00:55.412Z,77.66
2022-12-27T10:03:25.874Z,77.26
2022-12-27T10:06:07.815Z,77.09
2022-12-27T10:08:44.741Z,76.93
2022-12-27T10:11:38.969Z,75.73
2022-12-27T10:14:18.344Z,76.04
2022-12-27T10:17:13.190Z,76.10
2022-12-27T10:19:48.803Z,76.24
2022-12-27T10:22:33.919Z,75.37
2022-12-27T10:25:05.231Z,75.75
2022-12-27T10:27:31.900Z,75.63
2022-12-27T10:29:59.910Z,75.45
2022-12-27T10:32:27.275Z,75.62
2022-12-27T10:35:01.281Z,75.60
2022-12-27T10:37:28.779Z,75.38
2022-12-27T10:40:01.063Z,74.86
2022-12-27T10:42:34.885Z,74.30
2022-12-27T10:45:32.476Z,74.53
2022-12-27T10:48:17.116Z,74.44
2022-12-27T10:50:47.572Z,74.27
2022-12-27T10:53:38.227Z,74.47
2022-12-27T10:56:10.835Z,74.12
2022-12-27T10:58:39.359Z,74.19
2022-12-27T11:01:06.249Z,74.33
2022-12-27T11:03:34.151Z,73.99
2022-12-27T11:06:06.753Z,73.68
2022-12-27T11:08:33.819Z,73.31
2022-12-27T11:11:18.426Z,72.79
2022-12-27T11:13:45.988Z,72.78
2022-12-27T11:16:19.743Z,72.35
2022-12-27T11:18:51.085Z,72.38
2022-12-27T11:21:25.837Z,72.41
2022-12-27T11:23:58.433Z,72.39
2022-12-27T11:26:27.500Z,72.54
2022-12-27T11:28:58.420Z,72.36
2022-12-27T11:31:46.463Z,72.18
2022-12-27T11:34:33.874Z,72.30
2022-12-27T11:37:15.595Z,72.75
2022-12-27T11:39:42.155Z,72.46
2022-12-27T11:42:19.027Z,72.84
2022-12-27T11:44:57.199Z,72.96
2022-12-27T11:47:35.627Z,72.73
2022-12-27T11:50:27.104Z,72.53
2022-12-27T11:53:12.158Z,71.75
2022-12-27T11:55:40.053Z,71.45
2022-12-27T11:58:13.989Z,71.23
2022-12-27T12:00:49.548Z,71.40
2022-12-27T12:03:21.799Z,71.08
2022-12-27T12:06:03.611Z,71.27
2022-12-27T12:08:48.640Z,71.47
2022-12-27T12:11:54.844Z,71.77
2022-12-27T12:14:40.616Z,71.82
2022-12-27T12:17:35.673Z,71.78
2022-12-27T12:20:36.878Z,71.49
2022-12-27T12:23:10.437Z,72.02
2022-12-27T12:26:19.421Z,71.65
2022-12-27T12:29:05.472Z,71.62
2022-12-27T12:31:41.164Z,71.98
2022-12-27T12:34:40.308Z,71.96
2022-12-27T12:37:40.725Z,71.38
2022-12-27T12:40:45.198Z,71.22
2022-12-27T12:43:14.493Z,71.40
2022-12-27T12:45:53.255Z,71.23
2022-12-27T12:48:28.717Z,71.46
2022-12-27T12:51:13.603Z,71.17
2022-12-27T12:53:57.050Z,71.50
2022-12-27T12:56:42.843Z,71.99
2022-12-27T12:59:41.247Z,72.11
2022-12-27T13:02:46.060Z,72.26
2022-12-27T13:05:24.776Z,72.26
2022-12-27T13:08:13.147Z,72.49
2022-12-27T13:10:51.788Z,72.70
2022-12-27T13:13:30.638Z,72.54
2022-12-27T13:16:06.492Z,72.48
2022-12-27T13:19:00.426Z,72.34
2022-12-27T13:22:02.511Z,72.54
2022-12-27T13:25:03.581Z,72.59
2022-12-27T13:27:49.451Z,72.99
2022-12-27T13:30:20.147Z,72.89
2022-12-27T13:33:08.684Z,72.65
2022-12-27T13:36:00.230Z,72.85
2022-12-27T13:38:35.931Z,73.04
2022-12-27T13:41:35.242Z,73.05
2022-12-27T13:44:25.554Z,73.08
2022-12-27T13:47:03.963Z,73.37
2022-12-27T13:49:58.192Z,73.60
2022-12-27T13:52:45.695Z,73.77
2022-12-27T13:55:36.779Z,73.89
2022-12-27T13:58:22.096Z,73.88
2022-12-27T14:01:11.822Z,74.22
2022-12-27T14:03:55.373Z,74.19
2022-12-27T14:06:57.985Z,74.40
2022-12-27T14:10:04.983Z,74.54
2022-12-27T14:12:50.150Z,75.11
2022-12-27T14:15:21.984Z,75.60
2022-12-27T14:18:16.154Z,75.27
2022-12-27T14:20:58.415Z,75.72
2022-12-27T14:23:24.857Z,75.62
2022-12-27T14:25:54.371Z,75.81
2022-12-27T14:28:41.726Z,75.84
2022-12-27T14:31:25.022Z,75.65
2022-12-27T14:34:25.945Z,76.21
2022-12-27T14:37:23.264Z,76.32
2022-12-27T14:40:22.188Z,76.94
2022-12-27T14:43:16.409Z,76.38
2022-12-27T14:46:01.451Z,76.85
2022-12-27T14:49:02.288Z,76.80
2022-12-27T14:52:05.931Z,77.16
2022-12-27T14:54:51.984Z,76.92
2022-12-27T14:57:35.383Z,77.29
2022-12-27T15:00:05.529Z,77.20
2022-12-27T15:03:09.330Z,77.76
2022-12-27T15:05:53.956Z,77.83
2022-12-27T15:08:42.133Z,77.62
2022-12-27T15:11:17.780Z,77.79
2022-12-27T15:14:06.170Z,78.46
2022-12-27T15:17:07.872Z,78.61
2022-12-27T15:19:43.113Z,78.64
2022-12-27T15:22:22.578Z,78.44
2022-12-27T15:25:09.844Z,78.20
2022-12-27T15:27:59.884Z,78.39
2022-12-27T15:31:09.167Z,78.48
2022-12-27T15:34:05.727Z,78.69
2022-12-27T15:36:45.640Z,79.21
2022-12-27T15:39:33.837Z,79.25
2022-12-27T15:42:19.130Z,79.82
2022-12-27T15:45:18.430Z,79.31
2022-12-27T15:47:53.835Z,79.32
2022-12-27T15:50:38.404Z,79.65
2022-12-27T15:53:23.357Z,79.68
2022-12-27T15:56:11.027Z,79.86
2022-12-27T15:58:38.160Z,79.98
2022-12-27T16:01:33.969Z,79.87
2022-12-27T16:04:39.223Z,79.82
2022-12-27T16:07:40.887Z,79.88
2022-12-27T16:10:32.334Z,80.15
2022-12-27T16:13:00.547Z,79.94
2022-12-27T16:15:47.855Z,80.07
2022-12-27T16:18:17.852Z,80.65
2022-12-27T16:21:00.664Z,80.79
2022-12-27T16:23:32.022Z,80.99
2022-12-27T16:26:04.816Z,80.79
2022-12-27T16:28:33.598Z,81.10
2022-12-27T16:31:02.531Z,81.37
2022-12-27T16:33:33.733Z,81.50
2022-12-27T16:36:12.427Z,81.84
2022-12-27T16:38:52.644Z,81.47
2022-12-27T16:41:25.103Z,81.99
2022-12-27T16:44:12.033Z,82.11
2022-12-27T16:46:44.615Z,81.70
2022-12-27T16:49:29.050Z,82.60
2022-12-27T16:52:14.968Z,82.58
2022-12-27T16:55:19.233Z,82.74
2022-12-27T16:57:49.236Z,82.32
2022-12-27T17:00:35.363Z,82.33
2022-12-27T17:03:23.265Z,83.01
2022-12-27T17:06:30.653Z,82.74
2022-12-27T17:08:38.511Z,82.58
2022-12-27T17:11:24.844Z,83.36
2022-12-27T17:14:14.191Z,83.06
2022-12-27T17:16:45.815Z,83.58
2022-12-27T17:19:26.222Z,83.12
2022-12-27T17:22:00.115Z,83.21
2022-12-27T17:24:26.787Z,83.22
2022-12-27T17:27:27.249Z,83.68
2022-12-27T17:29:56.947Z,83.46
2022-12-27T17:32:47.863Z,84.07
2022-12-27T17:35:17.413Z,83.57
2022-12-27T17:37:58.870Z,83.46
2022-12-27T17:40:46.639Z,83.93
2022-12-27T17:44:00.939Z,83.94
2022-12-27T17:46:45.780Z,83.91
2022-12-27T17:49:12.423Z,83.93
2022-12-27T17:52:07.242Z,84.21
2022-12-27T17:54:52.305Z,84.10
2022-12-27T17:57:38.908Z,84.03
2022-12-27T18:00:07.128Z,84.08
2022-12-27T18:02:40.256Z,84.45
2022-12-27T18:05:13.634Z,84.49
2022-12-27T18:07:42.216Z,84.36
2022-12-27T18:10:26.819Z,84.20
2022-12-27T18:12:55.998Z,84.68
2022-12-27T18:15:25.151Z,84.71
2022-12-27T18:17:54.731Z,84.88
2022-12-27T18:20:30.395Z,84.97
2022-12-27T18:23:02.877Z,85.00
2022-12-27T18:25:30.660Z,84.90
2022-12-27T18:28:18.339Z,85.11
2022-12-27T18:30:44.869Z,84.85
2022-12-27T18:33:16.264Z,85.31
2022-12-27T18:35:47.488Z,85.37
2022-12-27T18:38:26.546Z,85.17
2022-12-27T18:41:05.276Z,85.19
2022-12-27T18:43:33.592Z,85.28
2022-12-27T18:46:01.342Z,85.35
2022-12-27T18:48:34.218Z,85.60
2022-12-27T18:51:02.909Z,84.79
2022-12-27T18:53:38.415Z,85.16
2022-12-27T18:56:07.625Z,85.31
2022-12-27T18:58:35.122Z,85.35
2022-12-27T19:01:06.249Z,85.02
2022-12-27T19:03:38.195Z,85.57
2022-12-27T19:06:07.462Z,85.46
2022-12-27T19:08:43.907Z,85.33
2022-12-27T19:11:21.331Z,85.24
2022-12-27T19:13:50.454Z,85.64
2022-12-27T19:16:31.605Z,85.68
2022-12-27T19:19:21.394Z,85.50
2022-12-27T19:21:48.192Z,85.67
2022-12-27T19:24:21.964Z,85.61
2022-12-27T19:26:48.680Z,85.88
2022-12-27T19:29:20.737Z,85.66
2022-12-27T19:32:19.746Z,85.82
2022-12-27T19:34:50.215Z,86.01
2022-12-27T19:37:17.204Z,86.74
2022-12-27T19:39:47.012Z,86.25
2022-12-27T19:42:23.622Z,86.25
2022-12-27T19:44:50.203Z,86.51
2022-12-27T19:47:16.973Z,86.21
2022-12-27T19:49:44.949Z,86.55
2022-12-27T19:52:17.697Z,86.66
2022-12-27T19:54:44.535Z,86.99
2022-12-27T19:57:12.593Z,86.51
2022-12-27T19:59:39.938Z,86.87
2022-12-27T20:02:07.165Z,86.89
2022-12-27T20:04:33.936Z,86.97
2022-12-27T20:07:01.764Z,87.25
2022-12-27T20:09:28.354Z,87.56
2022-12-27T20:11:54.951Z,87.63
2022-12-27T20:14:21.854Z,87.80
2022-12-27T20:16:48.551Z,87.76
2022-12-27T20:19:16.665Z,88.01
2022-12-27T20:21:43.506Z,87.88
2022-12-27T20:24:12.290Z,88.00
2022-12-27T20:26:39.999Z,88.25
2022-12-27T20:29:06.704Z,88.26
2022-12-27T20:31:33.381Z,88.41
2022-12-27T20:34:00.794Z,88.01
2022-12-27T20:36:27.411Z,87.63
2022-12-27T20:38:53.967Z,87.80
2022-12-27T20:41:21.937Z,87.58
2022-12-27T20:43:53.790Z,87.46
2022-12-27T20:46:20.401Z,86.86
2022-12-27T20:48:47.366Z,86.73
2022-12-27T20:51:19.600Z,86.64
2022-12-27T20:53:49.146Z,86.36
2022-12-27T20:56:16.443Z,85.93
2022-12-27T20:58:43.083Z,85.63
2022-12-27T21:01:12.844Z,85.37
2022-12-27T21:03:40.208Z,85.36
2022-12-27T21:06:10.902Z,85.47
2022-12-27T21:08:45.565Z,86.10
2022-12-27T21:11:17.872Z,85.49
2022-12-27T21:13:45.269Z,85.62
2022-12-27T21:16:14.540Z,85.43
2022-12-27T21:18:41.810Z,85.33
2022-12-27T21:21:11.961Z,85.90
2022-12-27T21:23:39.243Z,86.20
2022-12-27T21:26:08.846Z,85.76
2022-12-27T21:28:36.771Z,85.70
2022-12-27T21:31:04.512Z,85.47
2022-12-27T21:33:31.425Z,85.86
2022-12-27T21:36:04.794Z,85.11
2022-12-27T21:38:32.204Z,85.11
2022-12-27T21:41:01.398Z,85.59
2022-12-27T21:43:29.723Z,85.42
2022-12-27T21:45:57.607Z,85.49
2022-12-27T21:48:25.506Z,85.48
2022-12-27T21:50:52.037Z,85.40
2022-12-27T21:53:19.822Z,85.36
2022-12-27T21:55:47.006Z,85.23
2022-12-27T21:58:13.546Z,85.61
2022-12-27T22:00:40.245Z,85.20
2022-12-27T22:03:07.152Z,85.26
2022-12-27T22:05:33.957Z,85.41
2022-12-27T22:08:00.554Z,85.86
2022-12-27T22:10:27.234Z,85.79
2022-12-27T22:12:53.793Z,85.60
2022-12-27T22:15:20.857Z,85.49
2022-12-27T22:17:47.441Z,85.33
2022-12-27T22:20:14.210Z,85.51
2022-12-27T22:22:40.867Z,85.63
2022-12-27T22:25:08.407Z,85.43
2022-12-27T22:27:35.010Z,85.96
2022-12-27T22:30:01.610Z,85.14
2022-12-27T22:32:28.830Z,84.80
2022-12-27T22:34:55.404Z,84.91
2022-12-27T22:37:21.981Z,84.92
2022-12-27T22:39:48.770Z,84.71
2022-12-27T22:42:15.373Z,84.69
2022-12-27T22:44:43.748Z,84.11
2022-12-27T22:47:27.734Z,84.54
2022-12-27T22:49:54.966Z,84.31
2022-12-27T22:52:21.508Z,84.03
2022-12-27T22:55:04.140Z,84.08
2022-12-27T22:57:32.702Z,83.75
2022-12-27T22:59:59.346Z,83.58
2022-12-27T23:02:25.960Z,83.50
2022-12-27T23:04:52.626Z,83.68
2022-12-27T23:07:20.268Z,83.49
2022-12-27T23:09:46.937Z,83.52
2022-12-27T23:12:13.928Z,82.90
2022-12-27T23:14:40.925Z,82.72
2022-12-27T23:17:07.802Z,82.88
2022-12-27T23:19:34.389Z,82.78
2022-12-27T23:22:00.963Z,82.51
2022-12-27T23:24:27.498Z,81.85
2022-12-27T23:26:54.022Z,81.79
2022-12-27T23:29:20.897Z,81.83
2022-12-27T23:31:54.237Z,81.85
2022-12-27T23:34:27.762Z,82.12
2022-12-27T23:36:55.935Z,81.68
2022-12-27T23:39:22.492Z,81.83
2022-12-27T23:41:49.052Z,81.75
2022-12-27T23:44:18.587Z,82.12
2022-12-27T23:46:49.421Z,82.56
2022-12-27T23:49:17.507Z,82.75
2022-12-27T23:51:44.144Z,82.66
2022-12-27T23:54:10.675Z,83.19
2022-12-27T23:56:37.283Z,83.31
2022-12-27T23:59:06.938Z,83.55
